createdAt,value
2018-04-08T00:00:49.689Z,81.44
2018-04-08T00:01:49.709Z,81.35
2018-04-08T00:02:49.472Z,81.44
2018-04-08T00:03:49.751Z,81.25
2018-04-08T00:04:49.771Z,81.25
2018-04-08T00:05:49.534Z,81.73
2018-04-08T00:06:49.554Z,81.92
2018-04-08T00:07:49.833Z,81.82
2018-04-08T00:08:49.854Z,82.01
2018-04-08T00:09:49.898Z,82.11
2018-04-08T00:11:49.919Z,82.3
2018-04-08T00:12:49.939Z,82.49
2018-04-08T00:13:49.698Z,82.4
2018-04-08T00:14:49.977Z,82.59
2018-04-08T00:15:49.997Z,82.78
2018-04-08T00:16:50.020Z,82.49
2018-04-08T00:17:50.037Z,82.4
2018-04-08T00:19:04.718Z,82.78
2018-04-08T00:19:50.086Z,82.59
2018-04-08T00:20:50.100Z,83.16
2018-04-08T00:21:50.124Z,83.06
2018-04-08T00:22:49.883Z,82.87
2018-04-08T00:23:50.164Z,83.16
2018-04-08T00:24:49.925Z,83.25
2018-04-08T00:26:50.227Z,83.16
2018-04-08T00:27:50.243Z,82.87
2018-04-08T00:28:50.264Z,83.06
2018-04-08T00:29:50.285Z,83.35
2018-04-08T00:30:50.305Z,82.78
2018-04-08T00:31:50.326Z,82.78
2018-04-08T00:32:50.344Z,83.35
2018-04-08T00:33:50.371Z,82.97
2018-04-08T00:35:05.047Z,83.64
2018-04-08T00:35:50.408Z,83.44
2018-04-08T00:36:50.435Z,83.54
2018-04-08T00:37:50.452Z,83.54
2018-04-08T00:38:50.470Z,83.92
2018-04-08T00:39:50.494Z,83.44
2018-04-08T00:40:50.511Z,83.35
2018-04-08T00:41:50.272Z,83.92
2018-04-08T00:42:50.556Z,83.64
2018-04-08T00:44:50.591Z,83.44
2018-04-08T00:45:50.613Z,83.06
2018-04-08T00:46:50.633Z,83.16
2018-04-08T00:47:50.653Z,83.16
2018-04-08T00:48:50.416Z,83.44
2018-04-08T00:49:50.437Z,83.83
2018-04-08T00:51:05.375Z,83.92
2018-04-08T00:51:50.739Z,83.92
2018-04-08T00:52:50.765Z,84.01
2018-04-08T00:53:50.777Z,83.83
2018-04-08T00:54:50.798Z,83.83
2018-04-08T00:55:50.563Z,84.01
2018-04-08T00:56:50.838Z,84.01
2018-04-08T00:58:50.621Z,84.01
2018-04-08T00:59:50.900Z,84.01
2018-04-08T01:00:50.920Z,84.2
2018-04-08T01:02:50.961Z,84.78
2018-04-08T01:03:50.983Z,84.4
2018-04-08T01:04:51.003Z,84.59
2018-04-08T01:05:50.764Z,84.49
2018-04-08T01:07:05.703Z,84.69
2018-04-08T01:07:51.065Z,84.59
2018-04-08T01:08:51.093Z,84.49
2018-04-08T01:09:51.108Z,84.88
2018-04-08T01:10:51.126Z,84.59
2018-04-08T01:11:51.146Z,84.49
2018-04-08T01:12:51.166Z,84.49
2018-04-08T01:15:51.228Z,85.16
2018-04-08T01:16:51.248Z,85.06
2018-04-08T01:18:51.289Z,85.35
2018-04-08T01:19:51.319Z,85.35
2018-04-08T01:20:51.337Z,85.54
2018-04-08T01:22:06.012Z,85.35
2018-04-08T01:22:51.374Z,85.54
2018-04-08T01:23:51.401Z,85.45
2018-04-08T01:24:51.415Z,85.45
2018-04-08T01:25:51.176Z,85.45
2018-04-08T01:26:51.460Z,85.16
2018-04-08T01:27:51.475Z,85.35
2018-04-08T01:28:51.495Z,85.16
2018-04-08T01:29:51.516Z,85.54
2018-04-08T01:30:51.546Z,84.69
2018-04-08T01:31:51.555Z,84.88
2018-04-08T01:32:51.578Z,84.97
2018-04-08T01:33:51.599Z,84.88
2018-04-08T01:34:51.625Z,85.35
2018-04-08T01:36:51.660Z,85.54
2018-04-08T01:37:51.680Z,84.97
2018-04-08T01:38:51.708Z,84.88
2018-04-08T01:39:51.720Z,85.35
2018-04-08T01:40:51.741Z,85.31
2018-04-08T01:41:51.761Z,85.35
2018-04-08T01:42:51.781Z,85.41
2018-04-08T01:43:51.802Z,85.54
2018-04-08T01:44:51.822Z,85.35
2018-04-08T01:45:51.588Z,85.25
2018-04-08T01:46:51.864Z,84.78
2018-04-08T01:47:51.883Z,85.16
2018-04-08T01:48:51.905Z,84.92
2018-04-08T01:49:51.666Z,84.69
2018-04-08T01:50:51.945Z,84.97
2018-04-08T01:51:51.965Z,84.97
2018-04-08T01:52:51.985Z,84.49
2018-04-08T01:54:06.666Z,84.97
2018-04-08T01:54:52.028Z,84.92
2018-04-08T01:55:52.053Z,84.92
2018-04-08T01:56:52.068Z,84.45
2018-04-08T01:57:52.088Z,85.31
2018-04-08T01:58:52.161Z,85.12
2018-04-08T01:59:52.134Z,84.74
2018-04-08T02:00:52.148Z,84.74
2018-04-08T02:01:51.911Z,84.45
2018-04-08T02:02:51.931Z,84.92
2018-04-08T02:03:52.212Z,84.45
2018-04-08T02:04:52.243Z,83.78
2018-04-08T02:05:52.251Z,84.55
2018-04-08T02:06:52.272Z,83.97
2018-04-08T02:07:52.292Z,83.97
2018-04-08T02:08:52.313Z,83.97
2018-04-08T02:10:06.993Z,84.36
2018-04-08T02:10:52.354Z,83.88
2018-04-08T02:11:52.374Z,84.16
2018-04-08T02:12:52.400Z,84.64
2018-04-08T02:13:52.452Z,84.55
2018-04-08T02:14:52.434Z,85.5
2018-04-08T02:15:52.455Z,85.12
2018-04-08T02:16:52.474Z,84.92
2018-04-08T02:17:52.496Z,84.92
2018-04-08T02:18:52.514Z,85.41
2018-04-08T02:19:52.536Z,84.92
2018-04-08T02:20:52.299Z,84.74
2018-04-08T02:21:52.579Z,85.21
2018-04-08T02:22:52.600Z,84.92
2018-04-08T02:23:52.621Z,84.83
2018-04-08T02:24:52.639Z,84.26
2018-04-08T02:26:07.316Z,84.55
2018-04-08T02:26:52.677Z,84.16
2018-04-08T02:27:52.440Z,83.97
2018-04-08T02:28:52.720Z,84.07
2018-04-08T02:29:52.480Z,83.5
2018-04-08T02:30:52.760Z,83.5
2018-04-08T02:31:52.521Z,83.4
2018-04-08T02:32:52.806Z,82.92
2018-04-08T02:33:52.838Z,82.64
2018-04-08T02:34:52.583Z,82.64
2018-04-08T02:35:52.861Z,81.97
2018-04-08T02:36:52.882Z,81.97
2018-04-08T02:37:52.920Z,81.4
2018-04-08T02:38:52.664Z,82.17
2018-04-08T02:39:52.944Z,82.35
2018-04-08T02:40:52.961Z,82.54
2018-04-08T02:42:07.641Z,82.45
2018-04-08T02:42:53.002Z,82.26
2018-04-08T02:43:52.765Z,82.54
2018-04-08T02:44:53.043Z,82.45
2018-04-08T02:45:53.071Z,82.26
2018-04-08T02:46:53.091Z,82.54
2018-04-08T02:47:53.108Z,82.64
2018-04-08T02:48:53.127Z,82.54
2018-04-08T02:49:53.146Z,82.92
2018-04-08T02:50:53.165Z,82.92
2018-04-08T02:51:53.192Z,82.92
2018-04-08T02:52:53.207Z,82.92
2018-04-08T02:53:53.230Z,83.31
2018-04-08T02:54:53.247Z,83.88
2018-04-08T02:55:53.270Z,83.02
2018-04-08T02:57:07.945Z,82.83
2018-04-08T02:57:53.310Z,83.21
2018-04-08T02:58:53.326Z,83.4
2018-04-08T02:59:53.352Z,83.31
2018-04-08T03:00:53.111Z,83.5
2018-04-08T03:01:53.395Z,83.4
2018-04-08T03:02:53.407Z,83.4
2018-04-08T03:04:53.450Z,83.78
2018-04-08T03:05:53.468Z,83.88
2018-04-08T03:06:53.490Z,83.97
2018-04-08T03:07:53.516Z,83.93
2018-04-08T03:08:53.271Z,84.22
2018-04-08T03:09:53.554Z,84.26
2018-04-08T03:10:53.310Z,84.16
2018-04-08T03:11:53.331Z,83.97
2018-04-08T03:12:53.611Z,83.88
2018-04-08T03:13:53.629Z,84.07
2018-04-08T03:14:53.652Z,84.16
2018-04-08T03:15:53.675Z,83.78
2018-04-08T03:16:53.689Z,83.97
2018-04-08T03:17:53.710Z,83.78
2018-04-08T03:18:53.729Z,84.07
2018-04-08T03:19:53.748Z,84.16
2018-04-08T03:21:53.792Z,83.88
2018-04-08T03:22:53.810Z,84.26
2018-04-08T03:23:53.830Z,83.97
2018-04-08T03:24:53.862Z,83.97
2018-04-08T03:25:53.870Z,84.26
2018-04-08T03:26:53.632Z,84.69
2018-04-08T03:27:53.908Z,84.5
2018-04-08T03:29:08.589Z,84.69
2018-04-08T03:29:53.949Z,84.55
2018-04-08T03:30:53.983Z,84.69
2018-04-08T03:31:53.995Z,83.84
2018-04-08T03:32:54.010Z,84.16
2018-04-08T03:33:54.030Z,83.78
2018-04-08T03:34:53.791Z,83.88
2018-04-08T03:36:54.090Z,84.6
2018-04-08T03:37:54.109Z,84.64
2018-04-08T03:38:54.139Z,84.36
2018-04-08T03:39:54.151Z,84.64
2018-04-08T03:40:54.173Z,84.55
2018-04-08T03:41:53.934Z,84.74
2018-04-08T03:42:54.209Z,84.41
2018-04-08T03:43:54.230Z,84.69
2018-04-08T03:45:08.909Z,85.27
2018-04-08T03:45:54.272Z,85.55
2018-04-08T03:46:54.289Z,85.84
2018-04-08T03:47:54.310Z,85.64
2018-04-08T03:48:54.330Z,86.03
2018-04-08T03:49:54.091Z,86.51
2018-04-08T03:52:54.414Z,86.69
2018-04-08T03:53:54.433Z,86.41
2018-04-08T03:54:54.452Z,86.79
2018-04-08T03:55:54.470Z,87.07
2018-04-08T03:56:54.496Z,86.6
2018-04-08T03:57:54.599Z,86.98
2018-04-08T03:58:54.270Z,87.84
2018-04-08T03:59:54.551Z,87.46
2018-04-08T04:01:09.228Z,87.17
2018-04-08T04:01:54.587Z,88.12
2018-04-08T04:02:54.607Z,88.22
2018-04-08T04:03:54.370Z,88.22
2018-04-08T04:04:54.648Z,88.12
2018-04-08T04:05:54.667Z,88.41
2018-04-08T04:06:54.691Z,88.37
2018-04-08T04:07:54.709Z,88.56
2018-04-08T04:08:54.519Z,88.93
2018-04-08T04:09:54.747Z,88.65
2018-04-08T04:10:54.767Z,88.84
2018-04-08T04:12:54.811Z,88.65
2018-04-08T04:13:54.826Z,88.27
2018-04-08T04:14:54.847Z,88.65
2018-04-08T04:15:54.865Z,88.56
2018-04-08T04:17:09.545Z,89.13
2018-04-08T04:17:54.906Z,88.84
2018-04-08T04:18:54.928Z,88.46
2018-04-08T04:19:54.687Z,88.65
2018-04-08T04:20:54.964Z,88.75
2018-04-08T04:21:54.990Z,88.84
2018-04-08T04:22:55.005Z,88.65
2018-04-08T04:23:55.081Z,88.93
2018-04-08T04:24:55.046Z,88.84
2018-04-08T04:25:55.066Z,88.46
2018-04-08T04:26:55.089Z,88.93
2018-04-08T04:27:55.105Z,88.65
2018-04-08T04:28:55.123Z,89.03
2018-04-08T04:29:54.885Z,89.03
2018-04-08T04:30:55.162Z,88.46
2018-04-08T04:32:09.843Z,88.84
2018-04-08T04:32:55.241Z,88.75
2018-04-08T04:33:55.225Z,88.46
2018-04-08T04:34:55.242Z,88.46
2018-04-08T04:35:55.263Z,88.65
2018-04-08T04:36:55.287Z,88.65
2018-04-08T04:37:55.300Z,88.65
2018-04-08T04:38:55.328Z,88.75
2018-04-08T04:39:55.342Z,88.56
2018-04-08T04:40:55.362Z,88.08
2018-04-08T04:41:55.380Z,88.27
2018-04-08T04:42:55.403Z,88.18
2018-04-08T04:43:55.423Z,88.65
2018-04-08T04:44:55.444Z,88.46
2018-04-08T04:45:55.458Z,88.46
2018-04-08T04:46:55.480Z,88.37
2018-04-08T04:47:55.241Z,88.41
2018-04-08T04:48:55.524Z,88.27
2018-04-08T04:49:55.539Z,87.89
2018-04-08T04:50:55.561Z,88.12
2018-04-08T04:51:55.578Z,87.65
2018-04-08T04:52:55.599Z,87.17
2018-04-08T04:53:55.618Z,87.27
2018-04-08T04:54:55.646Z,87.17
2018-04-08T04:55:55.400Z,87.55
2018-04-08T04:56:55.678Z,87.55
2018-04-08T04:58:55.719Z,87.07
2018-04-08T04:59:55.737Z,86.69
2018-04-08T05:00:55.758Z,86.79
2018-04-08T05:01:55.780Z,86.22
2018-04-08T05:02:55.798Z,85.46
2018-04-08T05:04:10.478Z,85.88
2018-04-08T05:04:55.840Z,85.12
2018-04-08T05:05:55.860Z,83.78
2018-04-08T05:06:55.879Z,83.73
2018-04-08T05:07:55.900Z,83.64
2018-04-08T05:08:55.922Z,83.16
2018-04-08T05:09:55.944Z,83.44
2018-04-08T05:10:55.963Z,83.44
2018-04-08T05:11:55.984Z,83.78
2018-04-08T05:12:55.747Z,83.88
2018-04-08T05:13:56.104Z,84.07
2018-04-08T05:14:55.788Z,83.97
2018-04-08T05:15:56.068Z,84.07
2018-04-08T05:16:56.093Z,83.88
2018-04-08T05:17:56.115Z,84.07
2018-04-08T05:18:56.131Z,84.07
2018-04-08T05:20:10.812Z,83.06
2018-04-08T05:20:55.915Z,81.82
2018-04-08T05:21:56.194Z,81.48
2018-04-08T05:22:56.219Z,81.1
2018-04-08T05:23:56.238Z,81.29
2018-04-08T05:24:56.260Z,80.91
2018-04-08T05:25:56.280Z,80.05
2018-04-08T05:26:56.044Z,78.47
2018-04-08T05:27:56.324Z,77.99
2018-04-08T05:29:56.369Z,77.13
2018-04-08T05:30:56.394Z,77.42
2018-04-08T05:31:56.413Z,77.7
2018-04-08T05:32:56.438Z,78.09
2018-04-08T05:33:56.199Z,77.8
2018-04-08T05:34:56.533Z,78.09
2018-04-08T05:36:11.163Z,77.51
2018-04-08T05:36:56.524Z,77.23
2018-04-08T05:37:56.549Z,76.75
2018-04-08T05:38:56.574Z,76.4
2018-04-08T05:39:56.593Z,75.64
2018-04-08T05:40:56.720Z,74.88
2018-04-08T05:41:56.641Z,74.98
2018-04-08T05:42:56.666Z,74.88
2018-04-08T05:43:56.691Z,74.21
2018-04-08T05:44:56.712Z,74.24
2018-04-08T05:46:56.757Z,73.96
2018-04-08T05:47:56.781Z,73
2018-04-08T05:48:56.808Z,73.1
2018-04-08T05:49:56.571Z,73.58
2018-04-08T05:50:56.857Z,72.91
2018-04-08T05:52:11.538Z,73
2018-04-08T05:52:56.901Z,72.53
2018-04-08T05:53:56.668Z,71.89
2018-04-08T05:54:56.691Z,71.7
2018-04-08T05:55:56.977Z,71.13
2018-04-08T05:56:56.740Z,70.07
2018-04-08T05:57:57.028Z,69.73
2018-04-08T05:58:56.789Z,68.39
2018-04-08T05:59:57.079Z,68.04
2018-04-08T06:00:57.098Z,67.31
2018-04-08T06:01:57.125Z,66.45
2018-04-08T06:02:56.890Z,66.35
2018-04-08T06:03:57.175Z,65.97
2018-04-08T06:04:57.200Z,65.58
2018-04-08T06:05:57.226Z,65.3
2018-04-08T06:07:11.915Z,64.56
2018-04-08T06:07:57.280Z,64.56
2018-04-08T06:08:57.307Z,63.7
2018-04-08T06:09:57.333Z,63.22
2018-04-08T06:10:57.361Z,63.22
2018-04-08T06:12:57.413Z,62.49
2018-04-08T06:13:57.441Z,61.85
2018-04-08T06:14:57.484Z,60.79
2018-04-08T06:15:57.508Z,59.93
2018-04-08T06:16:57.528Z,60.12
2018-04-08T06:17:57.552Z,60.7
2018-04-08T06:18:57.583Z,60.76
2018-04-08T06:19:57.608Z,59.83
2018-04-08T06:20:57.638Z,60.15
2018-04-08T06:21:57.667Z,59.38
2018-04-08T06:22:57.437Z,59.74
2018-04-08T06:23:57.724Z,59.74
2018-04-08T06:24:57.810Z,59.38
2018-04-08T06:25:57.791Z,58.91
2018-04-08T06:26:57.553Z,58.42
2018-04-08T06:27:57.842Z,58.42
2018-04-08T06:28:57.873Z,57.85
2018-04-08T06:29:57.906Z,58.71
2018-04-08T06:31:57.961Z,58.36
2018-04-08T06:32:57.993Z,58.26
2018-04-08T06:33:58.022Z,58.07
2018-04-08T06:34:58.052Z,58.42
2018-04-08T06:35:58.082Z,57.65
2018-04-08T06:36:57.855Z,57.75
2018-04-08T06:37:58.144Z,57.85
2018-04-08T06:39:12.839Z,57.3
2018-04-08T06:39:58.204Z,55.99
2018-04-08T06:40:58.242Z,55.79
2018-04-08T06:41:58.268Z,54.67
2018-04-08T06:42:58.038Z,54.86
2018-04-08T06:43:58.328Z,55.12
2018-04-08T06:44:58.358Z,55.96
2018-04-08T06:45:58.389Z,56.05
2018-04-08T06:46:58.428Z,55.12
2018-04-08T06:47:58.194Z,54.47
2018-04-08T06:48:58.484Z,55.05
2018-04-08T06:49:58.518Z,54
2018-04-08T06:50:58.546Z,54.12
2018-04-08T06:51:58.580Z,53.54
2018-04-08T06:52:58.614Z,54.86
2018-04-08T06:53:58.642Z,54.67
2018-04-08T06:55:13.336Z,53.42
2018-04-08T06:55:58.716Z,53.74
2018-04-08T06:56:58.742Z,53.9
2018-04-08T06:57:58.513Z,54.28
2018-04-08T06:58:58.803Z,53.9
2018-04-08T06:59:58.833Z,54.28
2018-04-08T07:00:58.870Z,53.8
2018-04-08T07:04:58.996Z,52.7
2018-04-08T07:05:59.027Z,52.03
2018-04-08T07:06:59.060Z,51.74
2018-04-08T07:07:59.093Z,51.74
2018-04-08T07:08:58.873Z,52.12
2018-04-08T07:09:59.158Z,52.22
2018-04-08T07:11:13.856Z,52.12
2018-04-08T07:11:59.287Z,52.32
2018-04-08T07:12:59.259Z,51.45
2018-04-08T07:13:59.297Z,51.64
2018-04-08T07:14:59.323Z,51.45
2018-04-08T07:15:59.356Z,50.13
2018-04-08T07:16:59.387Z,50.51
2018-04-08T07:17:59.421Z,50.78
2018-04-08T07:18:59.453Z,50.87
2018-04-08T07:19:59.490Z,51.35
2018-04-08T07:20:59.527Z,51.35
2018-04-08T07:21:59.555Z,51.64
2018-04-08T07:22:59.585Z,51.55
2018-04-08T07:23:59.619Z,50.78
2018-04-08T07:24:59.652Z,50.61
2018-04-08T07:25:59.693Z,50.81
2018-04-08T07:27:14.379Z,50.61
2018-04-08T07:27:59.750Z,50.25
2018-04-08T07:28:59.524Z,49.77
2018-04-08T07:29:59.558Z,48.9
2018-04-08T07:30:59.849Z,50.06
2018-04-08T07:31:59.883Z,49.94
2018-04-08T07:32:59.916Z,50.13
2018-04-08T07:33:59.949Z,49.94
2018-04-08T07:34:59.723Z,50.04
2018-04-08T07:36:00.026Z,49.19
2018-04-08T07:37:00.048Z,49.22
2018-04-08T07:39:00.115Z,47.6
2018-04-08T07:40:00.152Z,47.77
2018-04-08T07:41:00.192Z,47.97
2018-04-08T07:42:14.878Z,48.9
2018-04-08T07:43:00.250Z,49.19
2018-04-08T07:44:00.281Z,48.9
2018-04-08T07:45:00.058Z,49.29
2018-04-08T07:46:00.089Z,49.84
2018-04-08T07:47:00.123Z,49.55
2018-04-08T07:48:00.414Z,49.38
2018-04-08T07:49:00.451Z,48.9
2018-04-08T07:50:00.662Z,49.77
2018-04-08T07:51:00.254Z,50.23
2018-04-08T07:52:00.545Z,49.94
2018-04-08T07:53:00.580Z,49.96
2018-04-08T07:54:00.352Z,49.48
2018-04-08T07:55:00.644Z,48.9
2018-04-08T07:56:00.680Z,48.81
2018-04-08T07:57:00.709Z,48.71
2018-04-08T07:58:00.744Z,48.9
2018-04-08T07:59:00.778Z,48.16
2018-04-08T08:00:00.856Z,47.87
2018-04-08T08:01:00.839Z,47.31
2018-04-08T08:02:00.871Z,47.03
2018-04-08T08:03:00.646Z,46.93
2018-04-08T08:04:00.936Z,46.73
2018-04-08T08:05:00.988Z,47.19
2018-04-08T08:06:01.007Z,47.41
2018-04-08T08:07:01.033Z,47.97
2018-04-08T08:08:01.066Z,48.25
2018-04-08T08:09:01.099Z,47.7
2018-04-08T08:10:01.132Z,47.51
2018-04-08T08:11:00.904Z,47.77
2018-04-08T08:12:01.195Z,48.33
2018-04-08T08:13:01.226Z,48.23
2018-04-08T08:14:15.922Z,48.35
2018-04-08T08:15:01.033Z,48.25
2018-04-08T08:16:01.324Z,48.54
2018-04-08T08:17:01.355Z,48.54
2018-04-08T08:18:01.388Z,47.75
2018-04-08T08:19:01.419Z,48.06
2018-04-08T08:20:01.451Z,48.35
2018-04-08T08:22:01.614Z,47.97
2018-04-08T08:23:01.714Z,47.77
2018-04-08T08:24:01.578Z,47.77
2018-04-08T08:25:01.610Z,48.35
2018-04-08T08:26:01.639Z,48.81
2018-04-08T08:27:01.678Z,48.52
2018-04-08T08:28:01.710Z,48.61
2018-04-08T08:29:01.834Z,49.17
2018-04-08T08:30:16.427Z,48.61
2018-04-08T08:31:01.800Z,48.16
2018-04-08T08:32:01.828Z,48.23
2018-04-08T08:33:01.599Z,48.43
2018-04-08T08:34:01.891Z,48.16
2018-04-08T08:35:01.920Z,48.25
2018-04-08T08:36:01.951Z,48.06
2018-04-08T08:37:01.982Z,47.87
2018-04-08T08:39:02.082Z,47.89
2018-04-08T08:40:02.074Z,47.03
2018-04-08T08:41:02.104Z,47.03
2018-04-08T08:43:01.906Z,46.56
2018-04-08T08:44:02.198Z,46.76
2018-04-08T08:45:02.230Z,46.83
2018-04-08T08:46:16.919Z,47.22
2018-04-08T08:47:02.287Z,47.22
2018-04-08T08:48:02.319Z,47.39
2018-04-08T08:49:02.350Z,47.41
2018-04-08T08:50:02.388Z,46.73
2018-04-08T08:51:02.410Z,46.37
2018-04-08T08:53:02.212Z,46.93
2018-04-08T08:54:02.501Z,47.8
2018-04-08T08:55:02.309Z,47.14
2018-04-08T08:56:02.570Z,47.24
2018-04-08T08:57:02.593Z,46.76
2018-04-08T08:58:02.673Z,46.95
2018-04-08T08:59:02.755Z,46.59
2018-04-08T09:00:02.691Z,46.28
2018-04-08T09:01:02.717Z,46.55
2018-04-08T09:02:17.405Z,47.03
2018-04-08T09:03:02.777Z,46.25
2018-04-08T09:04:02.545Z,46.93
2018-04-08T09:05:02.578Z,47.12
2018-04-08T09:06:02.865Z,46.66
2018-04-08T09:07:02.894Z,46.28
2018-04-08T09:08:02.923Z,46.47
2018-04-08T09:10:02.729Z,47.05
2018-04-08T09:11:03.015Z,46.47
2018-04-08T09:12:02.785Z,46.3
2018-04-08T09:13:03.080Z,45.53
2018-04-08T09:14:03.106Z,45.94
2018-04-08T09:15:03.136Z,44.59
2018-04-08T09:16:03.164Z,43.81
2018-04-08T09:17:17.855Z,44.7
2018-04-08T09:18:02.971Z,43.93
2018-04-08T09:19:03.253Z,44.29
2018-04-08T09:20:03.283Z,45.14
2018-04-08T09:21:03.058Z,45.43
2018-04-08T09:22:03.344Z,46.01
2018-04-08T09:23:03.373Z,46.11
2018-04-08T09:24:03.403Z,46.78
2018-04-08T09:25:03.434Z,45.43
2018-04-08T09:26:03.201Z,45.92
2018-04-08T09:27:03.494Z,45.82
2018-04-08T09:28:03.520Z,45.43
2018-04-08T09:29:03.297Z,44.95
2018-04-08T09:30:03.579Z,44.76
2018-04-08T09:31:03.350Z,45.53
2018-04-08T09:32:03.639Z,45.04
2018-04-08T09:33:03.669Z,44.97
2018-04-08T09:34:03.438Z,43.91
2018-04-08T09:35:03.469Z,44.59
2018-04-08T09:36:03.771Z,44.97
2018-04-08T09:37:03.525Z,44.97
2018-04-08T09:38:03.816Z,44.2
2018-04-08T09:39:03.587Z,44.49
2018-04-08T09:40:03.620Z,45.62
2018-04-08T09:42:03.674Z,46.11
2018-04-08T09:43:03.965Z,46.3
2018-04-08T09:44:03.734Z,45.34
2018-04-08T09:45:04.021Z,45.65
2018-04-08T09:46:04.051Z,46.01
2018-04-08T09:47:04.082Z,44.78
2018-04-08T09:48:03.849Z,45.26
2018-04-08T09:49:18.807Z,44.59
2018-04-08T09:50:04.167Z,45
2018-04-08T09:51:03.938Z,43.84
2018-04-08T09:52:03.965Z,43.95
2018-04-08T09:53:04.391Z,42.41
2018-04-08T09:54:04.024Z,43.08
2018-04-08T09:55:04.103Z,43.85
2018-04-08T09:56:04.082Z,44.12
2018-04-08T09:57:04.372Z,43.66
2018-04-08T09:58:04.403Z,44.15
2018-04-08T09:59:04.168Z,43.57
2018-04-08T10:00:04.461Z,43.18
2018-04-08T10:01:04.228Z,42.41
2018-04-08T10:02:04.259Z,43.37
2018-04-08T10:03:04.605Z,43.66
2018-04-08T10:04:04.318Z,43.66
2018-04-08T10:05:19.264Z,42.79
2018-04-08T10:06:04.373Z,42.21
2018-04-08T10:07:04.660Z,43.54
2018-04-08T10:08:04.531Z,42.5
2018-04-08T10:09:04.720Z,44.1
2018-04-08T10:10:04.750Z,43.24
2018-04-08T10:11:04.780Z,45.26
2018-04-08T10:12:04.559Z,44.1
2018-04-08T10:13:04.835Z,44.56
2018-04-08T10:14:04.603Z,45.62
2018-04-08T10:15:04.892Z,45.14
2018-04-08T10:16:04.661Z,46.11
2018-04-08T10:17:04.690Z,45.92
2018-04-08T10:18:04.718Z,46.49
2018-04-08T10:19:05.005Z,46.11
2018-04-08T10:20:04.776Z,46.01
2018-04-08T10:21:19.723Z,46.23
2018-04-08T10:22:04.831Z,46.78
2018-04-08T10:24:04.893Z,46.37
2018-04-08T10:25:04.917Z,46.28
2018-04-08T10:26:04.945Z,46.76
2018-04-08T10:27:05.240Z,46.55
2018-04-08T10:28:05.266Z,47.41
2018-04-08T10:29:05.453Z,47.97
2018-04-08T10:30:05.318Z,49.38
2018-04-08T10:31:05.345Z,49.32
2018-04-08T10:32:05.383Z,49.02
2018-04-08T10:33:05.399Z,49.12
2018-04-08T10:34:05.429Z,48.54
2018-04-08T10:35:05.198Z,48.44
2018-04-08T10:36:05.485Z,49.22
2018-04-08T10:37:20.174Z,50.18
2018-04-08T10:38:05.541Z,49.99
2018-04-08T10:39:05.569Z,48.74
2018-04-08T10:40:05.601Z,48.35
2018-04-08T10:41:05.629Z,48.74
2018-04-08T10:42:05.650Z,48.64
2018-04-08T10:43:05.675Z,49.58
2018-04-08T10:44:05.446Z,49.79
2018-04-08T10:45:05.472Z,49.99
2018-04-08T10:46:05.765Z,49.32
2018-04-08T10:47:05.785Z,50.09
2018-04-08T10:48:05.812Z,49.99
2018-04-08T10:49:05.581Z,50.18
2018-04-08T10:50:05.610Z,48.47
2018-04-08T10:51:05.634Z,49.34
2018-04-08T10:52:20.584Z,49.34
2018-04-08T10:53:05.950Z,48.93
2018-04-08T10:54:05.974Z,49.24
2018-04-08T10:55:05.741Z,49.15
2018-04-08T10:56:06.027Z,48.28
2018-04-08T10:57:05.794Z,49.15
2018-04-08T10:58:06.078Z,48.57
2018-04-08T11:00:05.873Z,49.43
2018-04-08T11:01:06.164Z,48.66
2018-04-08T11:02:06.183Z,47.7
2018-04-08T11:03:06.214Z,48.66
2018-04-08T11:05:06.262Z,47.99
2018-04-08T11:06:06.030Z,47.8
2018-04-08T11:07:06.056Z,48.76
2018-04-08T11:08:06.084Z,49.05
2018-04-08T11:09:06.119Z,48.57
2018-04-08T11:10:06.135Z,47.8
2018-04-08T11:11:06.163Z,49.34
2018-04-08T11:12:06.546Z,48.38
2018-04-08T11:13:06.213Z,47.7
2018-04-08T11:14:06.240Z,47.99
2018-04-08T11:15:06.265Z,48.66
2018-04-08T11:16:06.290Z,48.08
2018-04-08T11:17:06.575Z,47.89
2018-04-08T11:18:06.602Z,47.7
2018-04-08T11:19:06.629Z,47.58
2018-04-08T11:20:06.653Z,47.97
2018-04-08T11:21:06.425Z,48.25
2018-04-08T11:22:06.706Z,47.97
2018-04-08T11:23:06.731Z,48.64
2018-04-08T11:24:21.417Z,49.63
2018-04-08T11:25:06.785Z,48.28
2018-04-08T11:26:06.550Z,47.22
2018-04-08T11:27:06.838Z,47.41
2018-04-08T11:28:06.859Z,47.41
2018-04-08T11:29:06.627Z,46.73
2018-04-08T11:30:06.911Z,47.12
2018-04-08T11:31:06.685Z,47.6
2018-04-08T11:32:06.708Z,47.03
2018-04-08T11:33:06.738Z,47.31
2018-04-08T11:34:07.017Z,46.35
2018-04-08T11:35:07.039Z,47.22
2018-04-08T11:36:06.806Z,47.51
2018-04-08T11:37:06.832Z,47.22
2018-04-08T11:38:06.857Z,47.7
2018-04-08T11:39:06.882Z,47.22
2018-04-08T11:40:21.828Z,47.51
2018-04-08T11:41:07.198Z,46.76
2018-04-08T11:42:07.220Z,46.73
2018-04-08T11:43:07.248Z,45.58
2018-04-08T11:44:07.271Z,45.97
2018-04-08T11:45:07.295Z,46.64
2018-04-08T11:46:07.062Z,47.22
2018-04-08T11:47:07.088Z,46.15
2018-04-08T11:48:07.373Z,46.45
2018-04-08T11:51:07.451Z,46.55
2018-04-08T11:52:07.475Z,47.1
2018-04-08T11:53:07.240Z,46.81
2018-04-08T11:54:07.527Z,47
2018-04-08T11:55:07.554Z,47.49
2018-04-08T11:56:22.236Z,47.39
2018-04-08T11:57:07.702Z,47.7
2018-04-08T11:58:07.628Z,47.1
2018-04-08T11:59:07.654Z,47.39
2018-04-08T12:00:07.678Z,47.41
2018-04-08T12:01:07.712Z,46.25
2018-04-08T12:02:07.801Z,47.03
2018-04-08T12:03:07.754Z,47.41
2018-04-08T12:04:07.784Z,46.45
2018-04-08T12:05:07.806Z,46.73
2018-04-08T12:06:07.831Z,47.03
2018-04-08T12:07:07.856Z,47.41
2018-04-08T12:08:07.882Z,46.55
2018-04-08T12:09:07.907Z,46.64
2018-04-08T12:10:07.933Z,45.97
2018-04-08T12:11:07.699Z,46.55
2018-04-08T12:12:22.643Z,46.83
2018-04-08T12:13:07.750Z,46.73
2018-04-08T12:14:08.036Z,47.03
2018-04-08T12:15:07.800Z,46.55
2018-04-08T12:16:08.084Z,46.25
2018-04-08T12:17:08.111Z,47.7
2018-04-08T12:19:07.902Z,47.31
2018-04-08T12:20:07.928Z,47.41
2018-04-08T12:21:07.953Z,46.93
2018-04-08T12:22:08.237Z,46.45
2018-04-08T12:23:08.262Z,46.93
2018-04-08T12:24:08.289Z,48.66
2018-04-08T12:25:08.314Z,47.6
2018-04-08T12:26:08.342Z,47.51
2018-04-08T12:27:23.025Z,47.12
2018-04-08T12:28:08.401Z,46.93
2018-04-08T12:29:08.416Z,47.7
2018-04-08T12:30:08.443Z,47.22
2018-04-08T12:31:08.466Z,47.6
2018-04-08T12:32:08.233Z,47.8
2018-04-08T12:33:08.520Z,46.86
2018-04-08T12:34:08.284Z,46.95
2018-04-08T12:36:08.334Z,46.86
2018-04-08T12:37:08.620Z,46.95
2018-04-08T12:38:08.643Z,47.24
2018-04-08T12:39:08.674Z,46.28
2018-04-08T12:40:08.694Z,46.86
2018-04-08T12:41:08.720Z,47.14
2018-04-08T12:42:08.749Z,46.95
2018-04-08T12:43:08.512Z,47.44
2018-04-08T12:44:08.797Z,46.95
2018-04-08T12:45:08.825Z,46.66
2018-04-08T12:46:08.847Z,46.76
2018-04-08T12:47:08.874Z,46.55
2018-04-08T12:48:08.896Z,46.73
2018-04-08T12:49:08.664Z,47.51
2018-04-08T12:50:08.689Z,47.22
2018-04-08T12:51:08.973Z,47.31
2018-04-08T12:52:08.998Z,47.03
2018-04-08T12:54:08.793Z,47.6
2018-04-08T12:55:08.817Z,46.83
2018-04-08T12:56:09.100Z,47.22
2018-04-08T12:57:09.132Z,47.05
2018-04-08T12:58:08.896Z,46.76
2018-04-08T12:59:23.836Z,46.28
2018-04-08T13:00:09.201Z,46.35
2018-04-08T13:01:09.232Z,46.64
2018-04-08T13:02:08.993Z,46.64
2018-04-08T13:03:09.018Z,47.12
2018-04-08T13:04:09.044Z,47.03
2018-04-08T13:05:09.330Z,45.58
2018-04-08T13:06:09.097Z,46.55
2018-04-08T13:08:09.145Z,45.97
2018-04-08T13:09:09.428Z,46.15
2018-04-08T13:10:09.455Z,46.35
2018-04-08T13:11:09.480Z,46.73
2018-04-08T13:12:09.506Z,47.12
2018-04-08T13:13:09.531Z,46.45
2018-04-08T13:14:09.614Z,46.64
2018-04-08T13:15:24.242Z,46.35
2018-04-08T13:16:09.348Z,47.22
2018-04-08T13:17:09.630Z,47.51
2018-04-08T13:18:09.657Z,46.93
2018-04-08T13:19:09.687Z,46.15
2018-04-08T13:20:09.707Z,46.45
2018-04-08T13:21:09.734Z,46.73
2018-04-08T13:22:09.758Z,46.15
2018-04-08T13:23:09.784Z,46.55
2018-04-08T13:24:09.815Z,46.55
2018-04-08T13:25:09.833Z,47.12
2018-04-08T13:26:09.860Z,46.45
2018-04-08T13:27:09.884Z,46.73
2018-04-08T13:28:09.909Z,46.64
2018-04-08T13:29:09.978Z,46.93
2018-04-08T13:30:09.959Z,46.45
2018-04-08T13:31:24.645Z,45.77
2018-04-08T13:32:09.751Z,45.87
2018-04-08T13:33:10.037Z,45.97
2018-04-08T13:34:10.060Z,46.25
2018-04-08T13:36:10.116Z,45.68